sensor_id;sensor_type;location;lat;lon;timestamp;pressure;altitude;pressure_sealevel;temperature;humidity
4346;BME280;2186;49.866;7.986;2023-07-22T00:00:38;100109.09;;;16.43;90.88
4346;BME280;2186;49.866;7.986;2023-07-22T00:03:04;100109.91;;;16.45;91.16
4346;BME280;2186;49.866;7.986;2023-07-22T00:05:31;100107.28;;;16.43;90.34
4346;BME280;2186;49.866;7.986;2023-07-22T00:07:58;100102.84;;;16.42;90.32
4346;BME280;2186;49.866;7.986;2023-07-22T00:10:24;100101.72;;;16.30;90.74
4346;BME280;2186;49.866;7.986;2023-07-22T00:12:51;100101.47;;;16.19;90.95
4346;BME280;2186;49.866;7.986;2023-07-22T00:15:17;100096.97;;;16.20;90.61
4346;BME280;2186;49.866;7.986;2023-07-22T00:17:44;100101.03;;;16.43;89.93
4346;BME280;2186;49.866;7.986;2023-07-22T00:20:11;100103.91;;;16.40;90.14
4346;BME280;2186;49.866;7.986;2023-07-22T00:22:38;100103.81;;;16.41;89.70
4346;BME280;2186;49.866;7.986;2023-07-22T00:25:10;100109.91;;;16.61;88.85
4346;BME280;2186;49.866;7.986;2023-07-22T00:27:38;100110.66;;;16.63;88.95
4346;BME280;2186;49.866;7.986;2023-07-22T00:30:06;100117.00;;;16.62;88.57
4346;BME280;2186;49.866;7.986;2023-07-22T00:32:33;100111.34;;;16.66;88.52
4346;BME280;2186;49.866;7.986;2023-07-22T00:35:00;100105.69;;;16.72;88.72
4346;BME280;2186;49.866;7.986;2023-07-22T00:37:27;100096.94;;;16.69;89.19
4346;BME280;2186;49.866;7.986;2023-07-22T00:39:53;100106.16;;;16.63;89.23
4346;BME280;2186;49.866;7.986;2023-07-22T00:42:21;100104.63;;;16.59;88.86
4346;BME280;2186;49.866;7.986;2023-07-22T00:44:47;100108.22;;;16.58;89.35
4346;BME280;2186;49.866;7.986;2023-07-22T00:47:14;100106.72;;;16.70;89.18
4346;BME280;2186;49.866;7.986;2023-07-22T00:49:47;100111.56;;;16.79;88.42
4346;BME280;2186;49.866;7.986;2023-07-22T00:52:15;100106.78;;;16.68;87.96
4346;BME280;2186;49.866;7.986;2023-07-22T00:54:43;100103.25;;;16.68;88.12
4346;BME280;2186;49.866;7.986;2023-07-22T00:57:10;100107.91;;;16.64;88.14
4346;BME280;2186;49.866;7.986;2023-07-22T00:59:39;100107.03;;;16.64;88.34
4346;BME280;2186;49.866;7.986;2023-07-22T01:02:06;100108.09;;;16.77;87.81
4346;BME280;2186;49.866;7.986;2023-07-22T01:04:34;100099.97;;;16.78;88.04
4346;BME280;2186;49.866;7.986;2023-07-22T01:07:03;100106.78;;;16.84;88.34
4346;BME280;2186;49.866;7.986;2023-07-22T01:09:35;100106.00;;;16.82;87.42
4346;BME280;2186;49.866;7.986;2023-07-22T01:12:02;100104.44;;;16.94;87.23
4346;BME280;2186;49.866;7.986;2023-07-22T01:14:29;100103.31;;;16.98;86.92
4346;BME280;2186;49.866;7.986;2023-07-22T01:16:55;100100.13;;;16.91;86.44
4346;BME280;2186;49.866;7.986;2023-07-22T01:19:22;100096.84;;;16.86;87.17
4346;BME280;2186;49.866;7.986;2023-07-22T01:21:49;100088.34;;;16.62;88.24
4346;BME280;2186;49.866;7.986;2023-07-22T01:24:16;100090.84;;;16.49;88.34
4346;BME280;2186;49.866;7.986;2023-07-22T01:26:43;100088.56;;;16.57;88.21
4346;BME280;2186;49.866;7.986;2023-07-22T01:29:10;100096.03;;;16.52;88.31
4346;BME280;2186;49.866;7.986;2023-07-22T01:31:38;100092.84;;;16.46;89.06
4346;BME280;2186;49.866;7.986;2023-07-22T01:34:04;100094.47;;;16.33;89.81
4346;BME280;2186;49.866;7.986;2023-07-22T01:36:32;100096.53;;;16.27;90.40
4346;BME280;2186;49.866;7.986;2023-07-22T01:38:58;100092.28;;;16.23;89.89
4346;BME280;2186;49.866;7.986;2023-07-22T01:41:25;100096.97;;;16.36;89.80
4346;BME280;2186;49.866;7.986;2023-07-22T01:43:52;100090.47;;;16.40;89.59
4346;BME280;2186;49.866;7.986;2023-07-22T01:46:18;100101.50;;;16.51;89.48
4346;BME280;2186;49.866;7.986;2023-07-22T01:48:45;100096.19;;;16.18;90.33
4346;BME280;2186;49.866;7.986;2023-07-22T01:51:11;100096.38;;;15.97;91.18
4346;BME280;2186;49.866;7.986;2023-07-22T01:53:38;100097.44;;;15.95;91.33
4346;BME280;2186;49.866;7.986;2023-07-22T01:56:04;100097.03;;;15.85;90.98
4346;BME280;2186;49.866;7.986;2023-07-22T01:58:32;100100.75;;;15.83;91.34
4346;BME280;2186;49.866;7.986;2023-07-22T02:00:58;100097.75;;;15.89;91.17
4346;BME280;2186;49.866;7.986;2023-07-22T02:03:25;100102.66;;;15.81;90.97
4346;BME280;2186;49.866;7.986;2023-07-22T02:05:53;100099.06;;;15.64;91.58
4346;BME280;2186;49.866;7.986;2023-07-22T02:08:19;100092.25;;;15.40;92.29
4346;BME280;2186;49.866;7.986;2023-07-22T02:10:46;100100.47;;;15.37;92.21
4346;BME280;2186;49.866;7.986;2023-07-22T02:13:12;100102.81;;;15.26;93.13
4346;BME280;2186;49.866;7.986;2023-07-22T02:15:41;100096.97;;;15.18;92.96
4346;BME280;2186;49.866;7.986;2023-07-22T02:18:08;100098.13;;;14.95;93.07
4346;BME280;2186;49.866;7.986;2023-07-22T02:20:34;100108.06;;;14.74;93.17
4346;BME280;2186;49.866;7.986;2023-07-22T02:23:01;100114.78;;;14.82;93.56
4346;BME280;2186;49.866;7.986;2023-07-22T02:25:27;100108.00;;;14.75;93.20
4346;BME280;2186;49.866;7.986;2023-07-22T02:27:54;100111.34;;;14.62;93.59
4346;BME280;2186;49.866;7.986;2023-07-22T02:30:21;100110.34;;;14.45;94.09
4346;BME280;2186;49.866;7.986;2023-07-22T02:32:47;100108.06;;;14.36;94.74
4346;BME280;2186;49.866;7.986;2023-07-22T02:35:14;100111.25;;;14.26;95.05
4346;BME280;2186;49.866;7.986;2023-07-22T02:37:40;100109.31;;;14.29;95.04
4346;BME280;2186;49.866;7.986;2023-07-22T02:40:10;100111.00;;;14.11;95.55
4346;BME280;2186;49.866;7.986;2023-07-22T02:42:39;100115.94;;;14.20;95.79
4346;BME280;2186;49.866;7.986;2023-07-22T02:45:06;100115.00;;;14.21;95.40
4346;BME280;2186;49.866;7.986;2023-07-22T02:47:36;100123.38;;;14.33;95.08
4346;BME280;2186;49.866;7.986;2023-07-22T02:50:02;100115.81;;;14.42;94.91
4346;BME280;2186;49.866;7.986;2023-07-22T02:52:31;100112.94;;;14.47;95.17
4346;BME280;2186;49.866;7.986;2023-07-22T02:55:06;100112.63;;;14.72;94.48
4346;BME280;2186;49.866;7.986;2023-07-22T02:57:33;100109.88;;;14.73;93.88
4346;BME280;2186;49.866;7.986;2023-07-22T03:00:00;100115.66;;;14.64;94.68
4346;BME280;2186;49.866;7.986;2023-07-22T03:02:29;100114.38;;;14.73;94.36
4346;BME280;2186;49.866;7.986;2023-07-22T03:04:55;100114.38;;;14.73;94.45
4346;BME280;2186;49.866;7.986;2023-07-22T03:07:22;100110.50;;;14.78;94.53
4346;BME280;2186;49.866;7.986;2023-07-22T03:09:48;100117.66;;;14.97;94.43
4346;BME280;2186;49.866;7.986;2023-07-22T03:12:15;100113.44;;;15.10;93.32
4346;BME280;2186;49.866;7.986;2023-07-22T03:14:41;100113.34;;;14.94;94.11
4346;BME280;2186;49.866;7.986;2023-07-22T03:17:08;100110.75;;;15.10;93.23
4346;BME280;2186;49.866;7.986;2023-07-22T03:19:35;100105.31;;;15.11;93.44
4346;BME280;2186;49.866;7.986;2023-07-22T03:22:02;100105.31;;;15.11;93.75
4346;BME280;2186;49.866;7.986;2023-07-22T03:24:28;100095.25;;;15.17;93.56
4346;BME280;2186;49.866;7.986;2023-07-22T03:26:55;100094.91;;;15.05;93.62
4346;BME280;2186;49.866;7.986;2023-07-22T03:29:22;100098.94;;;14.97;93.89
4346;BME280;2186;49.866;7.986;2023-07-22T03:31:50;100096.72;;;15.05;93.96
4346;BME280;2186;49.866;7.986;2023-07-22T03:34:17;100100.66;;;15.15;93.58
4346;BME280;2186;49.866;7.986;2023-07-22T03:36:43;100109.66;;;15.14;93.94
4346;BME280;2186;49.866;7.986;2023-07-22T03:39:10;100098.41;;;15.25;93.76
4346;BME280;2186;49.866;7.986;2023-07-22T03:41:36;100109.66;;;15.14;94.28
4346;BME280;2186;49.866;7.986;2023-07-22T03:44:03;100108.78;;;15.14;94.57
4346;BME280;2186;49.866;7.986;2023-07-22T03:46:29;100106.66;;;15.20;94.98
4346;BME280;2186;49.866;7.986;2023-07-22T03:48:56;100106.97;;;15.31;94.37
4346;BME280;2186;49.866;7.986;2023-07-22T03:51:22;100106.44;;;15.25;94.52
4346;BME280;2186;49.866;7.986;2023-07-22T03:53:49;100102.94;;;15.05;95.83
4346;BME280;2186;49.866;7.986;2023-07-22T03:56:15;100113.97;;;14.99;96.09
4346;BME280;2186;49.866;7.986;2023-07-22T03:58:42;100110.94;;;14.88;95.95
4346;BME280;2186;49.866;7.986;2023-07-22T04:01:11;100110.31;;;14.83;95.84
4346;BME280;2186;49.866;7.986;2023-07-22T04:03:38;100109.72;;;14.95;95.27
4346;BME280;2186;49.866;7.986;2023-07-22T04:06:04;100113.19;;;14.97;95.36
4346;BME280;2186;49.866;7.986;2023-07-22T04:08:31;100110.16;;;14.86;95.71
4346;BME280;2186;49.866;7.986;2023-07-22T04:10:57;100107.97;;;14.94;95.50
4346;BME280;2186;49.866;7.986;2023-07-22T04:13:25;100111.94;;;14.68;96.14
4346;BME280;2186;49.866;7.986;2023-07-22T04:15:52;100116.69;;;14.62;96.88
4346;BME280;2186;49.866;7.986;2023-07-22T04:18:20;100116.03;;;14.75;96.55
4346;BME280;2186;49.866;7.986;2023-07-22T04:20:47;100118.69;;;14.75;96.53
4346;BME280;2186;49.866;7.986;2023-07-22T04:23:14;100118.63;;;14.77;96.21
4346;BME280;2186;49.866;7.986;2023-07-22T04:25:42;100117.06;;;14.90;95.96
4346;BME280;2186;49.866;7.986;2023-07-22T04:28:09;100113.84;;;14.84;96.10
4346;BME280;2186;49.866;7.986;2023-07-22T04:30:36;100121.75;;;14.68;96.51
4346;BME280;2186;49.866;7.986;2023-07-22T04:33:03;100126.25;;;14.67;96.28
4346;BME280;2186;49.866;7.986;2023-07-22T04:35:33;100125.31;;;14.68;96.91
4346;BME280;2186;49.866;7.986;2023-07-22T04:38:00;100138.53;;;14.71;96.51
4346;BME280;2186;49.866;7.986;2023-07-22T04:40:26;100144.50;;;14.76;96.21
4346;BME280;2186;49.866;7.986;2023-07-22T04:42:53;100139.75;;;14.64;96.95
4346;BME280;2186;49.866;7.986;2023-07-22T04:45:19;100137.06;;;14.83;96.14
4346;BME280;2186;49.866;7.986;2023-07-22T04:47:46;100138.94;;;15.34;93.31
4346;BME280;2186;49.866;7.986;2023-07-22T04:50:15;100132.72;;;16.03;91.23
4346;BME280;2186;49.866;7.986;2023-07-22T04:52:46;100137.25;;;16.51;89.10
4346;BME280;2186;49.866;7.986;2023-07-22T04:55:13;100133.47;;;16.71;87.43
4346;BME280;2186;49.866;7.986;2023-07-22T04:57:41;100127.66;;;16.95;87.07
4346;BME280;2186;49.866;7.986;2023-07-22T05:00:08;100130.38;;;17.25;85.88
4346;BME280;2186;49.866;7.986;2023-07-22T05:02:43;100130.78;;;17.63;84.26
4346;BME280;2186;49.866;7.986;2023-07-22T05:05:13;100124.72;;;17.75;82.91
4346;BME280;2186;49.866;7.986;2023-07-22T05:07:40;100128.84;;;17.51;85.12
4346;BME280;2186;49.866;7.986;2023-07-22T05:10:07;100132.34;;;17.67;84.50
4346;BME280;2186;49.866;7.986;2023-07-22T05:12:38;100129.34;;;17.87;83.19
4346;BME280;2186;49.866;7.986;2023-07-22T05:15:06;100132.25;;;18.27;81.73
4346;BME280;2186;49.866;7.986;2023-07-22T05:17:33;100139.16;;;18.45;79.78
4346;BME280;2186;49.866;7.986;2023-07-22T05:20:00;100138.56;;;18.83;78.56
4346;BME280;2186;49.866;7.986;2023-07-22T05:22:26;100124.59;;;18.76;78.48
4346;BME280;2186;49.866;7.986;2023-07-22T05:24:52;100132.59;;;18.49;79.51
4346;BME280;2186;49.866;7.986;2023-07-22T05:27:19;100136.97;;;18.66;78.75
4346;BME280;2186;49.866;7.986;2023-07-22T05:29:46;100131.31;;;18.98;78.31
4346;BME280;2186;49.866;7.986;2023-07-22T05:32:13;100128.81;;;18.94;77.22
4346;BME280;2186;49.866;7.986;2023-07-22T05:34:58;100133.69;;;18.18;79.79
4346;BME280;2186;49.866;7.986;2023-07-22T05:37:26;100138.41;;;18.15;80.26
4346;BME280;2186;49.866;7.986;2023-07-22T05:39:52;100140.47;;;17.81;82.04
4346;BME280;2186;49.866;7.986;2023-07-22T05:42:19;100145.38;;;17.59;83.45
4346;BME280;2186;49.866;7.986;2023-07-22T05:44:45;100145.75;;;17.68;84.05
4346;BME280;2186;49.866;7.986;2023-07-22T05:47:12;100132.06;;;18.01;82.93
4346;BME280;2186;49.866;7.986;2023-07-22T05:49:39;100140.53;;;18.10;82.50
4346;BME280;2186;49.866;7.986;2023-07-22T05:52:06;100144.75;;;18.28;80.57
4346;BME280;2186;49.866;7.986;2023-07-22T05:54:33;100147.78;;;18.08;81.92
4346;BME280;2186;49.866;7.986;2023-07-22T05:56:59;100153.38;;;18.33;80.22
4346;BME280;2186;49.866;7.986;2023-07-22T05:59:26;100152.25;;;18.51;79.96
4346;BME280;2186;49.866;7.986;2023-07-22T06:01:52;100149.63;;;18.50;80.30
4346;BME280;2186;49.866;7.986;2023-07-22T06:04:19;100146.16;;;18.33;80.02
4346;BME280;2186;49.866;7.986;2023-07-22T06:06:45;100144.75;;;18.42;80.32
4346;BME280;2186;49.866;7.986;2023-07-22T06:09:12;100156.44;;;17.98;81.58
4346;BME280;2186;49.866;7.986;2023-07-22T06:11:38;100153.00;;;18.11;82.08
4346;BME280;2186;49.866;7.986;2023-07-22T06:14:05;100153.00;;;18.11;81.86
4346;BME280;2186;49.866;7.986;2023-07-22T06:16:31;100146.25;;;17.89;82.50
4346;BME280;2186;49.866;7.986;2023-07-22T06:18:58;100144.75;;;18.28;81.46
4346;BME280;2186;49.866;7.986;2023-07-22T06:21:25;100146.94;;;18.07;81.35
4346;BME280;2186;49.866;7.986;2023-07-22T06:23:51;100152.69;;;18.01;81.88
4346;BME280;2186;49.866;7.986;2023-07-22T06:26:18;100154.91;;;18.09;81.94
4346;BME280;2186;49.866;7.986;2023-07-22T06:28:47;100157.53;;;18.10;81.67
4346;BME280;2186;49.866;7.986;2023-07-22T06:31:14;100162.72;;;18.13;81.11
4346;BME280;2186;49.866;7.986;2023-07-22T06:33:40;100157.78;;;18.20;80.85
4346;BME280;2186;49.866;7.986;2023-07-22T06:36:07;100164.16;;;18.19;81.36
4346;BME280;2186;49.866;7.986;2023-07-22T06:38:33;100163.38;;;18.45;79.69
4346;BME280;2186;49.866;7.986;2023-07-22T06:41:00;100159.34;;;18.52;79.84
4346;BME280;2186;49.866;7.986;2023-07-22T06:43:26;100169.50;;;18.61;78.42
4346;BME280;2186;49.866;7.986;2023-07-22T06:45:53;100170.03;;;18.40;78.33
4346;BME280;2186;49.866;7.986;2023-07-22T06:48:20;100173.78;;;18.37;77.91
4346;BME280;2186;49.866;7.986;2023-07-22T06:50:48;100169.06;;;18.41;77.60
4346;BME280;2186;49.866;7.986;2023-07-22T06:53:14;100175.41;;;18.40;76.51
4346;BME280;2186;49.866;7.986;2023-07-22T06:55:51;100180.09;;;18.36;76.44
4346;BME280;2186;49.866;7.986;2023-07-22T06:58:19;100179.16;;;18.23;76.00
4346;BME280;2186;49.866;7.986;2023-07-22T07:00:45;100179.53;;;18.31;76.02
4346;BME280;2186;49.866;7.986;2023-07-22T07:03:12;100171.25;;;18.34;76.70
4346;BME280;2186;49.866;7.986;2023-07-22T07:05:38;100174.91;;;18.33;76.58
4346;BME280;2186;49.866;7.986;2023-07-22T07:08:08;100176.84;;;18.31;76.73
4346;BME280;2186;49.866;7.986;2023-07-22T07:10:38;100181.00;;;18.65;76.47
4346;BME280;2186;49.866;7.986;2023-07-22T07:13:05;100168.72;;;19.02;75.75
4346;BME280;2186;49.866;7.986;2023-07-22T07:15:32;100173.66;;;18.96;76.45
4346;BME280;2186;49.866;7.986;2023-07-22T07:17:59;100162.25;;;19.32;74.77
4346;BME280;2186;49.866;7.986;2023-07-22T07:20:25;100163.13;;;19.05;75.25
4346;BME280;2186;49.866;7.986;2023-07-22T07:22:52;100168.47;;;19.19;74.90
4346;BME280;2186;49.866;7.986;2023-07-22T07:25:18;100169.41;;;19.18;74.98
4346;BME280;2186;49.866;7.986;2023-07-22T07:27:45;100165.81;;;19.32;73.67
4346;BME280;2186;49.866;7.986;2023-07-22T07:30:11;100166.38;;;19.37;73.44
4346;BME280;2186;49.866;7.986;2023-07-22T07:32:38;100166.66;;;19.47;72.44
4346;BME280;2186;49.866;7.986;2023-07-22T07:35:05;100174.97;;;19.57;72.87
4346;BME280;2186;49.866;7.986;2023-07-22T07:37:32;100169.22;;;19.75;72.84
4346;BME280;2186;49.866;7.986;2023-07-22T07:39:59;100169.72;;;19.68;71.68
4346;BME280;2186;49.866;7.986;2023-07-22T07:42:26;100169.75;;;19.80;71.49
4346;BME280;2186;49.866;7.986;2023-07-22T07:44:54;100171.94;;;20.01;70.84
4346;BME280;2186;49.866;7.986;2023-07-22T07:47:20;100174.63;;;20.26;70.01
4346;BME280;2186;49.866;7.986;2023-07-22T07:49:47;100160.94;;;20.29;69.03
4346;BME280;2186;49.866;7.986;2023-07-22T07:52:14;100175.00;;;20.47;69.32
4346;BME280;2186;49.866;7.986;2023-07-22T07:54:40;100167.53;;;20.51;69.54
4346;BME280;2186;49.866;7.986;2023-07-22T07:57:07;100166.63;;;20.76;68.00
4346;BME280;2186;49.866;7.986;2023-07-22T07:59:33;100168.00;;;21.31;65.96
4346;BME280;2186;49.866;7.986;2023-07-22T08:02:03;100165.53;;;21.15;65.71
4346;BME280;2186;49.866;7.986;2023-07-22T08:04:35;100169.84;;;21.17;66.46
4346;BME280;2186;49.866;7.986;2023-07-22T08:07:02;100169.03;;;21.41;64.73
4346;BME280;2186;49.866;7.986;2023-07-22T08:09:30;100167.44;;;21.38;64.20
4346;BME280;2186;49.866;7.986;2023-07-22T08:11:57;100168.03;;;21.66;64.07
4346;BME280;2186;49.866;7.986;2023-07-22T08:14:24;100170.63;;;21.67;63.68
4346;BME280;2186;49.866;7.986;2023-07-22T08:16:50;100174.66;;;21.62;63.55
4346;BME280;2186;49.866;7.986;2023-07-22T08:19:17;100174.72;;;22.08;63.21
4346;BME280;2186;49.866;7.986;2023-07-22T08:21:43;100168.09;;;22.23;62.59
4346;BME280;2186;49.866;7.986;2023-07-22T08:24:10;100171.16;;;21.83;62.24
4346;BME280;2186;49.866;7.986;2023-07-22T08:26:36;100165.09;;;21.69;62.60
4346;BME280;2186;49.866;7.986;2023-07-22T08:29:03;100163.16;;;21.82;62.84
4346;BME280;2186;49.866;7.986;2023-07-22T08:31:29;100169.00;;;22.00;62.00
4346;BME280;2186;49.866;7.986;2023-07-22T08:33:56;100172.28;;;21.81;61.82
4346;BME280;2186;49.866;7.986;2023-07-22T08:36:23;100171.03;;;22.09;62.44
4346;BME280;2186;49.866;7.986;2023-07-22T08:38:49;100169.44;;;21.82;61.97
4346;BME280;2186;49.866;7.986;2023-07-22T08:41:16;100173.88;;;21.83;62.34
4346;BME280;2186;49.866;7.986;2023-07-22T08:43:45;100161.47;;;22.03;62.19
4346;BME280;2186;49.866;7.986;2023-07-22T08:46:12;100173.38;;;22.25;61.32
4346;BME280;2186;49.866;7.986;2023-07-22T08:48:41;100166.25;;;22.35;61.00
4346;BME280;2186;49.866;7.986;2023-07-22T08:51:27;100163.56;;;22.35;61.17
4346;BME280;2186;49.866;7.986;2023-07-22T08:53:55;100162.53;;;22.81;59.77
4346;BME280;2186;49.866;7.986;2023-07-22T08:56:36;100172.88;;;23.09;58.07
4346;BME280;2186;49.866;7.986;2023-07-22T08:59:03;100158.34;;;22.99;57.89
4346;BME280;2186;49.866;7.986;2023-07-22T09:01:32;100157.38;;;23.00;56.72
4346;BME280;2186;49.866;7.986;2023-07-22T09:04:00;100160.47;;;22.95;56.85
4346;BME280;2186;49.866;7.986;2023-07-22T09:06:26;100157.06;;;23.25;55.50
4346;BME280;2186;49.866;7.986;2023-07-22T09:08:54;100151.63;;;23.25;57.26
4346;BME280;2186;49.866;7.986;2023-07-22T09:11:21;100154.31;;;22.93;56.93
4346;BME280;2186;49.866;7.986;2023-07-22T09:13:49;100148.16;;;22.91;56.91
4346;BME280;2186;49.866;7.986;2023-07-22T09:16:17;100146.88;;;23.07;57.28
4346;BME280;2186;49.866;7.986;2023-07-22T09:18:44;100150.84;;;23.46;55.41
4346;BME280;2186;49.866;7.986;2023-07-22T09:21:11;100154.13;;;23.81;54.66
4346;BME280;2186;49.866;7.986;2023-07-22T09:23:38;100142.31;;;23.18;56.63
4346;BME280;2186;49.866;7.986;2023-07-22T09:26:11;100149.47;;;23.40;56.59
4346;BME280;2186;49.866;7.986;2023-07-22T09:28:54;100133.94;;;24.16;52.74
4346;BME280;2186;49.866;7.986;2023-07-22T09:31:23;100138.50;;;24.15;52.06
4346;BME280;2186;49.866;7.986;2023-07-22T09:33:51;100139.22;;;24.17;50.75
4346;BME280;2186;49.866;7.986;2023-07-22T09:36:20;100132.22;;;24.15;46.71
4346;BME280;2186;49.866;7.986;2023-07-22T09:39:00;100125.50;;;24.80;45.09
4346;BME280;2186;49.866;7.986;2023-07-22T09:41:29;100123.28;;;24.95;47.34
4346;BME280;2186;49.866;7.986;2023-07-22T09:44:03;100117.00;;;25.04;46.35
4346;BME280;2186;49.866;7.986;2023-07-22T09:46:32;100103.88;;;24.38;46.59
4346;BME280;2186;49.866;7.986;2023-07-22T09:49:05;100116.72;;;24.67;46.14
4346;BME280;2186;49.866;7.986;2023-07-22T09:51:37;100110.28;;;24.58;46.37
4346;BME280;2186;49.866;7.986;2023-07-22T09:54:19;100120.91;;;24.80;45.82
4346;BME280;2186;49.866;7.986;2023-07-22T09:56:48;100104.06;;;24.87;44.60
4346;BME280;2186;49.866;7.986;2023-07-22T09:59:17;100108.16;;;25.12;44.14
4346;BME280;2186;49.866;7.986;2023-07-22T10:01:46;100103.53;;;25.22;44.17
4346;BME280;2186;49.866;7.986;2023-07-22T10:04:15;100103.69;;;25.20;44.09
4346;BME280;2186;49.866;7.986;2023-07-22T10:06:42;100101.84;;;25.40;44.10
4346;BME280;2186;49.866;7.986;2023-07-22T10:09:11;100097.13;;;25.52;43.95
4346;BME280;2186;49.866;7.986;2023-07-22T10:11:39;100104.16;;;25.64;43.81
4346;BME280;2186;49.866;7.986;2023-07-22T10:14:05;100096.69;;;25.47;44.45
4346;BME280;2186;49.866;7.986;2023-07-22T10:16:33;100102.97;;;25.86;43.81
4346;BME280;2186;49.866;7.986;2023-07-22T10:19:01;100101.13;;;25.67;43.90
4346;BME280;2186;49.866;7.986;2023-07-22T10:21:28;100100.41;;;25.55;45.23
4346;BME280;2186;49.866;7.986;2023-07-22T10:23:57;100093.81;;;25.58;43.37
4346;BME280;2186;49.866;7.986;2023-07-22T10:26:24;100096.09;;;25.62;42.88
4346;BME280;2186;49.866;7.986;2023-07-22T10:29:11;100095.69;;;25.57;44.00
4346;BME280;2186;49.866;7.986;2023-07-22T10:31:38;100095.34;;;26.09;43.46
4346;BME280;2186;49.866;7.986;2023-07-22T10:34:05;100090.22;;;25.96;43.41
4346;BME280;2186;49.866;7.986;2023-07-22T10:36:31;100089.25;;;25.78;43.74
4346;BME280;2186;49.866;7.986;2023-07-22T10:38:59;100076.78;;;26.22;42.59
4346;BME280;2186;49.866;7.986;2023-07-22T10:41:30;100080.38;;;26.60;41.65
4346;BME280;2186;49.866;7.986;2023-07-22T10:43:59;100079.97;;;27.00;39.99
4346;BME280;2186;49.866;7.986;2023-07-22T10:46:56;100072.63;;;26.82;40.79
4346;BME280;2186;49.866;7.986;2023-07-22T10:49:23;100066.44;;;27.08;40.00
4346;BME280;2186;49.866;7.986;2023-07-22T10:51:51;100063.22;;;26.95;39.69
4346;BME280;2186;49.866;7.986;2023-07-22T10:54:34;100061.31;;;27.23;39.77
4346;BME280;2186;49.866;7.986;2023-07-22T10:57:23;100057.97;;;26.83;40.70
4346;BME280;2186;49.866;7.986;2023-07-22T10:59:55;100051.06;;;26.34;39.98
4346;BME280;2186;49.866;7.986;2023-07-22T11:02:27;100050.31;;;26.69;39.58
4346;BME280;2186;49.866;7.986;2023-07-22T11:05:03;100060.09;;;26.90;39.63
4346;BME280;2186;49.866;7.986;2023-07-22T11:07:35;100050.47;;;26.85;38.84
4346;BME280;2186;49.866;7.986;2023-07-22T11:10:15;100049.47;;;26.41;38.35
4346;BME280;2186;49.866;7.986;2023-07-22T11:12:44;100040.59;;;26.29;38.03
4346;BME280;2186;49.866;7.986;2023-07-22T11:15:14;100043.78;;;26.25;38.59
4346;BME280;2186;49.866;7.986;2023-07-22T11:17:41;100036.56;;;26.34;37.96
4346;BME280;2186;49.866;7.986;2023-07-22T11:20:08;100048.75;;;26.29;37.82
4346;BME280;2186;49.866;7.986;2023-07-22T11:22:35;100028.06;;;26.74;37.90
4346;BME280;2186;49.866;7.986;2023-07-22T11:25:05;100033.94;;;26.69;37.37
4346;BME280;2186;49.866;7.986;2023-07-22T11:27:32;100033.03;;;26.96;36.29
4346;BME280;2186;49.866;7.986;2023-07-22T11:29:59;100025.16;;;26.93;36.68
4346;BME280;2186;49.866;7.986;2023-07-22T11:32:25;100022.75;;;26.90;36.09
4346;BME280;2186;49.866;7.986;2023-07-22T11:34:52;100028.72;;;27.03;36.04
4346;BME280;2186;49.866;7.986;2023-07-22T11:37:19;100017.88;;;26.48;36.13
4346;BME280;2186;49.866;7.986;2023-07-22T11:39:46;100025.56;;;26.98;35.87
4346;BME280;2186;49.866;7.986;2023-07-22T11:42:12;100016.34;;;26.81;36.25
4346;BME280;2186;49.866;7.986;2023-07-22T11:44:39;100001.91;;;26.71;36.49
4346;BME280;2186;49.866;7.986;2023-07-22T11:47:07;100010.28;;;26.88;37.18
4346;BME280;2186;49.866;7.986;2023-07-22T11:49:43;99998.47;;;27.14;35.56
4346;BME280;2186;49.866;7.986;2023-07-22T11:52:17;100010.81;;;26.73;36.25
4346;BME280;2186;49.866;7.986;2023-07-22T11:54:45;100002.28;;;26.58;36.00
4346;BME280;2186;49.866;7.986;2023-07-22T11:57:17;100006.13;;;26.83;36.05
4346;BME280;2186;49.866;7.986;2023-07-22T11:59:48;99991.91;;;27.07;35.19
4346;BME280;2186;49.866;7.986;2023-07-22T12:02:16;99993.84;;;26.79;36.04
4346;BME280;2186;49.866;7.986;2023-07-22T12:04:51;99989.78;;;26.83;35.93
4346;BME280;2186;49.866;7.986;2023-07-22T12:07:38;99992.72;;;26.72;35.68
4346;BME280;2186;49.866;7.986;2023-07-22T12:10:07;99990.72;;;27.10;35.73
4346;BME280;2186;49.866;7.986;2023-07-22T12:12:41;99980.34;;;26.78;36.29
4346;BME280;2186;49.866;7.986;2023-07-22T12:15:12;100000.31;;;26.78;36.28
4346;BME280;2186;49.866;7.986;2023-07-22T12:20:23;99979.31;;;27.32;34.38
4346;BME280;2186;49.866;7.986;2023-07-22T12:22:50;99983.72;;;27.07;34.03
4346;BME280;2186;49.866;7.986;2023-07-22T12:25:16;99977.16;;;27.18;34.67
4346;BME280;2186;49.866;7.986;2023-07-22T12:27:44;99984.25;;;27.29;34.74
4346;BME280;2186;49.866;7.986;2023-07-22T12:30:11;99985.66;;;27.33;35.47
4346;BME280;2186;49.866;7.986;2023-07-22T12:32:38;99978.25;;;27.07;35.16
4346;BME280;2186;49.866;7.986;2023-07-22T12:35:05;99975.53;;;27.07;35.75
4346;BME280;2186;49.866;7.986;2023-07-22T12:37:32;99976.75;;;27.13;35.74
4346;BME280;2186;49.866;7.986;2023-07-22T12:39:59;99979.78;;;27.45;35.85
4346;BME280;2186;49.866;7.986;2023-07-22T12:42:25;99980.75;;;27.19;35.26
4346;BME280;2186;49.866;7.986;2023-07-22T12:44:52;99974.69;;;27.07;35.93
4346;BME280;2186;49.866;7.986;2023-07-22T12:47:18;99969.03;;;27.26;35.33
4346;BME280;2186;49.866;7.986;2023-07-22T12:49:45;99980.81;;;27.27;35.25
4346;BME280;2186;49.866;7.986;2023-07-22T12:52:12;99971.53;;;27.20;34.99
4346;BME280;2186;49.866;7.986;2023-07-22T12:54:40;99974.72;;;27.33;35.44
4346;BME280;2186;49.866;7.986;2023-07-22T12:57:07;99981.16;;;27.50;35.27
4346;BME280;2186;49.866;7.986;2023-07-22T12:59:34;99971.31;;;27.57;35.10
4346;BME280;2186;49.866;7.986;2023-07-22T13:02:00;99972.91;;;27.41;35.38
4346;BME280;2186;49.866;7.986;2023-07-22T13:04:27;99972.09;;;27.49;35.92
4346;BME280;2186;49.866;7.986;2023-07-22T13:06:53;99978.06;;;27.44;35.68
4346;BME280;2186;49.866;7.986;2023-07-22T13:09:20;99968.75;;;27.11;35.86
4346;BME280;2186;49.866;7.986;2023-07-22T13:11:47;99965.44;;;27.43;35.93
4346;BME280;2186;49.866;7.986;2023-07-22T13:14:14;99967.88;;;27.29;35.24
4346;BME280;2186;49.866;7.986;2023-07-22T13:16:41;99964.13;;;27.12;36.30
4346;BME280;2186;49.866;7.986;2023-07-22T13:19:07;99961.81;;;27.17;35.92